Time;durP1;ratioP1;P1;durP2;ratioP2;P2;SDS_P1;SDS_P2;PMS_P1;PMS_P2;Temp;Humidity;BMP_temperature;BMP_pressure;BME280_temperature;BME280_humidity;BME280_pressure;Samples;Min_cycle;Max_cycle;Signal;HPM_P1;HPM_P2
2022/10/29 00:00:41;;;;;;;11.00;3.85;;;13.80;99.90;;;;;;5067756;28;20072;-71
2022/10/29 00:03:07;;;;;;;10.88;3.55;;;13.70;99.90;;;;;;5046774;28;20428;-72
2022/10/29 00:05:33;;;;;;;13.52;3.85;;;13.70;99.90;;;;;;5055711;28;20050;-71
2022/10/29 00:07:58;;;;;;;11.75;4.28;;;13.70;99.90;;;;;;5051199;28;20048;-72
2022/10/29 00:10:24;;;;;;;10.48;4.10;;;13.60;99.90;;;;;;5071834;28;20040;-72
2022/10/29 00:12:50;;;;;;;11.63;4.05;;;13.60;99.90;;;;;;5072143;28;20078;-72
2022/10/29 00:15:16;;;;;;;12.63;3.65;;;13.50;99.90;;;;;;5066676;28;20075;-71
2022/10/29 00:17:41;;;;;;;11.65;4.13;;;13.50;99.90;;;;;;5060511;28;20045;-72
2022/10/29 00:20:07;;;;;;;14.18;3.85;;;13.50;99.90;;;;;;5049555;28;20029;-71
2022/10/29 00:22:33;;;;;;;9.82;3.70;;;13.60;99.90;;;;;;5076839;28;20079;-72
2022/10/29 00:24:59;;;;;;;11.40;4.20;;;13.50;99.90;;;;;;5077525;28;20586;-72
2022/10/29 00:27:25;;;;;;;12.45;3.90;;;13.50;99.90;;;;;;5058764;28;20051;-72
2022/10/29 00:29:50;;;;;;;12.05;3.53;;;13.50;99.90;;;;;;5080111;28;20044;-72
2022/10/29 00:32:16;;;;;;;11.77;3.90;;;13.50;99.90;;;;;;5074321;28;20040;-71
2022/10/29 00:34:42;;;;;;;11.93;4.07;;;13.50;99.90;;;;;;5076371;28;20071;-71
2022/10/29 00:37:07;;;;;;;10.60;3.95;;;13.50;99.90;;;;;;5069197;28;20049;-72
2022/10/29 00:39:33;;;;;;;13.02;4.72;;;13.50;99.90;;;;;;5063709;28;20594;-71
2022/10/29 00:41:59;;;;;;;13.45;5.50;;;13.50;99.90;;;;;;5059299;28;20139;-71
2022/10/29 00:44:37;;;;;;;11.55;4.45;;;13.50;99.90;;;;;;5069874;28;20108;-71
2022/10/29 00:47:26;;;;;;;13.95;5.32;;;13.60;99.90;;;;;;5048500;28;20045;-72
2022/10/29 00:50:06;;;;;;;15.43;5.97;;;13.60;99.90;;;;;;5065168;28;20082;-71
2022/10/29 00:52:37;;;;;;;18.33;6.78;;;13.60;99.90;;;;;;5068432;28;20616;-71
2022/10/29 00:55:06;;;;;;;17.52;7.30;;;13.70;99.90;;;;;;5076814;28;20077;-72
2022/10/29 00:57:38;;;;;;;14.80;6.40;;;13.70;99.90;;;;;;5050348;28;20075;-71
2022/10/29 01:00:05;;;;;;;16.15;6.97;;;13.80;99.90;;;;;;5073702;28;20040;-71
2022/10/29 01:02:33;;;;;;;15.15;7.07;;;13.70;99.90;;;;;;5078710;28;20136;-71
2022/10/29 01:05:00;;;;;;;16.88;7.72;;;13.70;99.90;;;;;;5065603;28;20047;-71
2022/10/29 01:07:26;;;;;;;16.65;6.65;;;13.80;99.90;;;;;;5048045;28;20124;-71
2022/10/29 01:09:52;;;;;;;20.73;7.25;;;13.70;99.90;;;;;;5050008;28;20110;-71
2022/10/29 01:12:31;;;;;;;12.02;5.38;;;13.70;99.90;;;;;;5061281;28;20523;-71
2022/10/29 01:15:04;;;;;;;12.55;5.22;;;13.60;99.90;;;;;;5079106;28;20442;-71
2022/10/29 01:17:58;;;;;;;11.90;5.78;;;13.50;99.90;;;;;;5067567;28;20553;-72
2022/10/29 01:20:33;;;;;;;9.70;5.15;;;13.50;99.90;;;;;;5031345;28;20053;-71
2022/10/29 01:23:17;;;;;;;14.18;5.72;;;13.40;99.90;;;;;;5069553;28;20079;-71
2022/10/29 01:26:01;;;;;;;10.15;5.55;;;13.30;99.90;;;;;;5062710;28;20036;-72
2022/10/29 01:28:47;;;;;;;13.05;5.85;;;13.20;99.90;;;;;;5056466;28;20044;-71
2022/10/29 01:31:37;;;;;;;15.35;6.13;;;13.20;99.90;;;;;;5066344;28;20041;-71
2022/10/29 01:34:19;;;;;;;15.88;6.07;;;13.20;99.90;;;;;;5075902;28;20052;-71
2022/10/29 01:37:00;;;;;;;13.13;6.38;;;13.20;99.90;;;;;;5052250;28;20119;-71
2022/10/29 01:39:39;;;;;;;13.35;5.68;;;13.20;99.90;;;;;;5061143;28;20102;-71
2022/10/29 01:42:18;;;;;;;19.73;7.38;;;13.20;99.90;;;;;;5067973;28;20040;-70
2022/10/29 01:44:52;;;;;;;18.00;7.43;;;13.20;99.90;;;;;;5062722;28;20449;-71
2022/10/29 01:47:20;;;;;;;14.65;7.35;;;13.20;99.90;;;;;;5048055;28;20062;-71
2022/10/29 01:50:01;;;;;;;22.02;8.13;;;13.20;99.90;;;;;;5064293;28;20053;-72
2022/10/29 01:52:31;;;;;;;20.00;8.23;;;13.30;99.90;;;;;;5069413;28;20086;-71
2022/10/29 01:54:57;;;;;;;20.25;9.27;;;13.30;99.90;;;;;;5065636;28;20523;-72
2022/10/29 01:57:34;;;;;;;14.80;7.82;;;13.30;99.90;;;;;;5071090;28;20120;-71
2022/10/29 02:00:18;;;;;;;22.85;9.95;;;13.40;99.90;;;;;;5053077;28;20048;-71
2022/10/29 02:02:51;;;;;;;21.23;8.68;;;13.30;99.90;;;;;;5064881;28;20036;-71
2022/10/29 02:05:45;;;;;;;19.48;8.40;;;13.30;99.90;;;;;;5074158;28;20044;-72
2022/10/29 02:08:46;;;;;;;18.17;8.30;;;13.30;99.90;;;;;;5076012;28;20047;-72
2022/10/29 02:11:38;;;;;;;17.45;7.68;;;13.30;99.90;;;;;;5069346;28;20044;-71
2022/10/29 02:14:26;;;;;;;17.85;7.35;;;13.40;99.90;;;;;;5065881;28;20057;-71
2022/10/29 02:16:54;;;;;;;19.98;8.52;;;13.40;99.90;;;;;;5058397;28;20144;-71
2022/10/29 02:19:20;;;;;;;19.50;7.78;;;13.40;99.90;;;;;;5086502;28;20075;-71
2022/10/29 02:21:46;;;;;;;15.82;7.43;;;13.30;99.90;;;;;;5072360;28;20061;-72
2022/10/29 02:24:11;;;;;;;12.70;6.35;;;13.30;99.90;;;;;;5058265;28;20651;-71
2022/10/29 02:26:37;;;;;;;14.48;7.72;;;13.20;99.90;;;;;;5063747;28;20083;-71
2022/10/29 02:29:02;;;;;;;12.85;6.90;;;13.20;99.90;;;;;;5066930;28;20044;-72
2022/10/29 02:31:28;;;;;;;18.63;9.05;;;13.20;99.90;;;;;;5073633;28;20032;-72
2022/10/29 02:33:54;;;;;;;15.27;6.30;;;13.10;99.90;;;;;;5064768;28;20040;-71
2022/10/29 02:36:19;;;;;;;13.63;6.28;;;13.00;99.90;;;;;;5077857;28;20047;-72
2022/10/29 02:38:45;;;;;;;12.05;5.95;;;12.90;99.90;;;;;;5086753;28;20506;-72
2022/10/29 02:41:11;;;;;;;13.25;6.40;;;12.80;99.90;;;;;;5077032;28;20039;-71
2022/10/29 02:43:36;;;;;;;11.30;7.22;;;12.70;99.90;;;;;;5067576;28;20051;-71
2022/10/29 02:46:20;;;;;;;12.00;7.00;;;12.70;99.90;;;;;;5075008;28;20043;-71
2022/10/29 02:48:47;;;;;;;11.30;6.50;;;12.70;99.90;;;;;;5060147;28;20036;-71
2022/10/29 02:51:13;;;;;;;16.42;7.85;;;12.70;99.90;;;;;;5052119;28;20107;-71
2022/10/29 02:53:38;;;;;;;13.98;6.93;;;12.70;99.90;;;;;;5060202;28;20076;-71
2022/10/29 02:56:06;;;;;;;14.57;7.57;;;12.70;99.90;;;;;;5061878;28;20458;-71
2022/10/29 02:58:32;;;;;;;12.50;7.95;;;12.60;99.90;;;;;;5063399;28;20056;-71
2022/10/29 03:00:57;;;;;;;13.25;7.25;;;12.50;99.90;;;;;;5064038;28;20047;-71
2022/10/29 03:03:23;;;;;;;11.82;6.90;;;12.50;99.90;;;;;;5066266;28;20067;-72
2022/10/29 03:05:49;;;;;;;15.45;7.80;;;12.60;99.90;;;;;;5086593;28;20083;-71
2022/10/29 03:08:15;;;;;;;16.75;8.02;;;12.50;99.90;;;;;;5048810;28;20103;-72
2022/10/29 03:10:41;;;;;;;15.55;8.15;;;12.50;99.90;;;;;;5059443;28;20036;-71
2022/10/29 03:13:07;;;;;;;18.33;9.20;;;12.60;99.90;;;;;;5072866;28;20051;-71
2022/10/29 03:15:32;;;;;;;16.30;8.75;;;12.60;99.90;;;;;;5061848;28;20045;-71
2022/10/29 03:17:58;;;;;;;19.20;9.75;;;12.60;99.90;;;;;;5064905;28;20047;-71
2022/10/29 03:20:23;;;;;;;19.48;10.00;;;12.50;99.90;;;;;;5065683;28;20033;-71
2022/10/29 03:22:49;;;;;;;16.33;8.90;;;12.70;99.90;;;;;;5063370;28;20123;-71
2022/10/29 03:25:15;;;;;;;21.67;9.65;;;12.70;99.90;;;;;;5070938;28;20131;-72
2022/10/29 03:27:44;;;;;;;17.38;9.38;;;12.70;99.90;;;;;;5065441;28;20057;-71
2022/10/29 03:30:15;;;;;;;15.00;9.25;;;12.70;99.90;;;;;;5058272;28;20040;-71
2022/10/29 03:32:42;;;;;;;16.20;9.93;;;12.60;99.90;;;;;;5066617;28;20042;-71
2022/10/29 03:35:08;;;;;;;19.63;10.23;;;12.60;99.90;;;;;;5072109;28;20036;-72
2022/10/29 03:37:34;;;;;;;19.60;11.65;;;12.70;99.90;;;;;;5064250;28;20559;-71
2022/10/29 03:40:00;;;;;;;18.75;10.82;;;12.70;99.90;;;;;;5069564;28;20120;-71
2022/10/29 03:42:25;;;;;;;21.85;10.40;;;12.70;99.90;;;;;;5083553;28;20075;-71
2022/10/29 03:44:51;;;;;;;20.65;10.48;;;12.80;99.90;;;;;;5076524;28;20075;-72
2022/10/29 03:47:17;;;;;;;14.73;10.27;;;12.80;99.90;;;;;;5075736;28;20039;-72
2022/10/29 03:49:42;;;;;;;19.00;9.75;;;12.80;99.90;;;;;;5072773;28;20048;-72
2022/10/29 03:52:08;;;;;;;19.45;10.02;;;12.90;99.90;;;;;;5050255;28;20049;-72
2022/10/29 03:54:33;;;;;;;18.15;10.35;;;12.80;99.90;;;;;;5045185;28;20052;-71
2022/10/29 03:56:59;;;;;;;18.75;10.70;;;12.80;99.90;;;;;;5084117;28;20298;-71
2022/10/29 03:59:25;;;;;;;19.58;11.27;;;12.80;99.90;;;;;;5078735;28;20045;-71
2022/10/29 04:01:50;;;;;;;21.48;11.40;;;12.80;99.90;;;;;;5064747;28;20547;-72
2022/10/29 04:04:16;;;;;;;21.42;11.90;;;12.80;99.90;;;;;;5058370;28;20159;-71
2022/10/29 04:06:42;;;;;;;19.40;12.18;;;12.90;99.90;;;;;;5065995;28;20067;-72
2022/10/29 04:09:07;;;;;;;18.58;12.88;;;12.90;99.90;;;;;;5068778;28;20079;-72
2022/10/29 04:11:33;;;;;;;22.38;12.30;;;12.90;99.90;;;;;;5064882;28;20123;-72
2022/10/29 04:13:59;;;;;;;22.92;13.98;;;12.90;99.90;;;;;;5069351;28;20085;-72
2022/10/29 04:16:24;;;;;;;19.75;13.02;;;12.90;99.90;;;;;;5055592;28;20049;-72
2022/10/29 04:18:50;;;;;;;20.55;12.95;;;12.90;99.90;;;;;;5064268;28;20051;-72
2022/10/29 04:21:16;;;;;;;24.48;14.00;;;13.00;99.90;;;;;;5063814;28;20127;-69
2022/10/29 04:23:42;;;;;;;24.27;13.65;;;13.00;99.90;;;;;;5060202;28;20140;-69
2022/10/29 04:26:08;;;;;;;21.77;13.73;;;12.90;99.90;;;;;;5066582;28;20044;-70
2022/10/29 04:28:34;;;;;;;18.75;13.30;;;13.00;99.90;;;;;;5083293;28;20040;-70
2022/10/29 04:31:06;;;;;;;20.73;12.30;;;13.00;99.90;;;;;;5083032;28;20036;-70
2022/10/29 04:33:32;;;;;;;18.55;12.18;;;13.00;99.90;;;;;;5055320;28;20415;-71
2022/10/29 04:35:57;;;;;;;21.13;12.40;;;13.00;99.90;;;;;;5067573;28;20043;-71
2022/10/29 04:38:23;;;;;;;21.33;12.25;;;12.90;99.90;;;;;;5068810;28;20045;-71
2022/10/29 04:40:49;;;;;;;22.27;13.32;;;12.90;99.90;;;;;;5067016;28;20051;-71
2022/10/29 04:43:15;;;;;;;24.90;14.40;;;12.90;99.90;;;;;;5070215;28;20090;-70
2022/10/29 04:45:41;;;;;;;24.00;15.57;;;13.00;99.90;;;;;;5063814;28;20471;-71
2022/10/29 04:48:07;;;;;;;24.40;14.88;;;12.90;99.90;;;;;;5074297;28;20056;-71
2022/10/29 04:50:36;;;;;;;25.80;15.45;;;13.00;99.90;;;;;;5074862;28;20150;-71
2022/10/29 04:53:04;;;;;;;26.75;15.00;;;13.10;99.90;;;;;;5089381;28;20101;-71
2022/10/29 04:55:30;;;;;;;26.67;16.50;;;13.10;99.90;;;;;;5076345;28;20041;-71
2022/10/29 04:57:56;;;;;;;25.73;15.98;;;13.00;99.90;;;;;;5074628;28;20037;-71
2022/10/29 05:00:22;;;;;;;27.23;16.83;;;13.10;99.90;;;;;;5061799;28;20043;-72
2022/10/29 05:02:49;;;;;;;24.90;16.67;;;13.10;99.90;;;;;;5062947;28;20079;-71
2022/10/29 05:05:17;;;;;;;29.70;15.93;;;13.10;99.90;;;;;;5067176;28;20044;-71
2022/10/29 05:07:42;;;;;;;;;;;13.10;99.90;;;;;;5074306;28;20503;-71
2022/10/29 05:10:08;;;;;;;25.80;15.85;;;13.00;99.90;;;;;;5057535;28;19920;-71
2022/10/29 05:12:34;;;;;;;25.40;16.05;;;13.00;99.90;;;;;;5072275;28;20036;-71
2022/10/29 05:15:00;;;;;;;26.50;16.33;;;13.00;99.90;;;;;;5065320;28;20047;-71
2022/10/29 05:17:25;;;;;;;24.15;16.73;;;13.00;99.90;;;;;;5082805;28;20063;-71
2022/10/29 05:19:51;;;;;;;25.52;15.93;;;12.90;99.90;;;;;;5078661;28;20467;-71
2022/10/29 05:22:17;;;;;;;24.00;16.17;;;12.90;99.90;;;;;;5077033;28;20086;-71
2022/10/29 05:24:42;;;;;;;25.25;14.95;;;12.80;99.90;;;;;;5067670;28;20037;-71
2022/10/29 05:27:08;;;;;;;19.95;15.32;;;12.80;99.90;;;;;;5072131;28;20134;-71
2022/10/29 05:29:33;;;;;;;20.73;15.32;;;12.80;99.90;;;;;;5080918;28;20040;-71
2022/10/29 05:31:59;;;;;;;25.70;15.15;;;12.80;99.90;;;;;;5065544;28;20044;-71
2022/10/29 05:34:25;;;;;;;18.35;15.15;;;12.80;99.90;;;;;;5070772;28;20036;-70
2022/10/29 05:36:50;;;;;;;20.42;14.88;;;12.80;99.90;;;;;;5065103;28;20032;-71
2022/10/29 05:39:16;;;;;;;27.05;16.52;;;12.80;99.90;;;;;;5064291;28;20035;-70
2022/10/29 05:41:42;;;;;;;24.67;17.00;;;12.80;99.90;;;;;;5078392;28;20051;-70
2022/10/29 05:44:08;;;;;;;35.53;16.48;;;12.80;99.90;;;;;;5076237;28;20045;-70
2022/10/29 05:46:34;;;;;;;26.75;16.63;;;12.80;99.90;;;;;;5061788;28;20633;-70
2022/10/29 05:48:59;;;;;;;20.83;15.65;;;12.80;99.90;;;;;;5056302;28;20040;-70
2022/10/29 05:51:25;;;;;;;17.17;15.10;;;12.70;99.90;;;;;;5056502;28;20492;-70
2022/10/29 05:53:51;;;;;;;23.33;16.67;;;12.70;99.90;;;;;;5065796;28;20036;-70
2022/10/29 05:56:16;;;;;;;18.80;15.30;;;12.70;99.90;;;;;;5071697;28;20039;-71
2022/10/29 05:58:42;;;;;;;19.05;15.40;;;12.70;99.90;;;;;;5066828;28;20166;-70
2022/10/29 06:01:09;;;;;;;21.05;16.25;;;12.70;99.90;;;;;;5074945;28;20433;-70
2022/10/29 06:03:35;;;;;;;20.92;14.45;;;12.70;99.90;;;;;;5066138;28;20059;-70
2022/10/29 06:06:01;;;;;;;20.42;16.30;;;12.70;99.90;;;;;;5056458;28;20044;-69
2022/10/29 06:08:26;;;;;;;22.08;16.15;;;12.70;99.90;;;;;;5075847;28;20074;-70
2022/10/29 06:10:52;;;;;;;19.17;15.05;;;12.70;99.90;;;;;;5051799;28;20381;-70
2022/10/29 06:13:20;;;;;;;23.55;16.23;;;12.80;99.90;;;;;;5072201;28;20036;-70
2022/10/29 06:15:47;;;;;;;23.33;16.83;;;12.80;99.90;;;;;;5070460;28;20131;-69
2022/10/29 06:18:14;;;;;;;22.05;16.00;;;12.80;99.90;;;;;;5062879;28;20604;-70
2022/10/29 06:20:42;;;;;;;20.57;15.20;;;12.80;99.90;;;;;;5058161;28;20064;-70
2022/10/29 06:23:09;;;;;;;23.23;16.85;;;12.80;99.90;;;;;;5061669;28;20052;-69
2022/10/29 06:25:35;;;;;;;;;;;12.80;99.90;;;;;;5060542;28;20040;-69
2022/10/29 06:28:10;;;;;;;19.63;16.23;;;12.70;99.90;;;;;;5059736;28;19941;-70
2022/10/29 06:30:36;;;;;;;23.08;16.33;;;12.70;99.90;;;;;;5073345;28;20142;-71
2022/10/29 06:33:03;;;;;;;20.30;16.67;;;12.70;99.90;;;;;;5057206;28;20183;-70
2022/10/29 06:35:30;;;;;;;21.38;16.27;;;12.80;99.90;;;;;;5064397;28;20055;-70
2022/10/29 06:37:56;;;;;;;18.97;15.73;;;12.80;99.90;;;;;;5058709;28;20040;-70
2022/10/29 06:40:22;;;;;;;22.80;16.88;;;12.80;99.90;;;;;;5057590;28;20403;-70
2022/10/29 06:42:48;;;;;;;21.30;16.02;;;12.80;99.90;;;;;;5072244;28;20126;-71
2022/10/29 06:45:14;;;;;;;23.02;15.95;;;12.80;99.90;;;;;;5063838;28;20115;-70
2022/10/29 06:47:44;;;;;;;20.42;16.25;;;12.80;99.90;;;;;;5070445;28;20033;-71
2022/10/29 06:50:11;;;;;;;21.38;16.63;;;12.90;99.90;;;;;;5066108;28;20044;-71
2022/10/29 06:52:40;;;;;;;21.50;15.77;;;12.80;99.90;;;;;;5067896;28;20062;-70
2022/10/29 06:55:07;;;;;;;22.10;16.23;;;12.90;99.90;;;;;;5063883;28;20777;-71
2022/10/29 06:57:33;;;;;;;20.13;16.33;;;12.90;99.90;;;;;;5065974;28;20044;-70
2022/10/29 06:59:59;;;;;;;20.70;16.05;;;12.90;99.90;;;;;;5064531;28;20127;-71
2022/10/29 07:02:25;;;;;;;25.02;17.25;;;12.90;99.90;;;;;;5066021;28;20119;-71
2022/10/29 07:04:51;;;;;;;23.48;16.85;;;12.90;99.90;;;;;;5063540;28;20043;-71
2022/10/29 07:07:17;;;;;;;21.27;16.10;;;13.00;99.90;;;;;;5070716;28;20043;-70
2022/10/29 07:09:42;;;;;;;20.92;16.35;;;13.00;99.90;;;;;;5060165;28;20033;-71
2022/10/29 07:12:08;;;;;;;23.60;16.80;;;13.00;99.90;;;;;;5064265;28;20130;-71
2022/10/29 07:14:34;;;;;;;21.88;16.65;;;13.00;99.90;;;;;;5062525;28;20467;-73
2022/10/29 07:17:00;;;;;;;21.15;17.30;;;13.10;99.90;;;;;;5072080;28;20036;-70
2022/10/29 07:19:26;;;;;;;21.50;16.58;;;13.10;99.90;;;;;;5063782;28;20082;-71
2022/10/29 07:21:51;;;;;;;21.63;16.98;;;13.10;99.90;;;;;;5063932;28;20052;-72
2022/10/29 07:24:17;;;;;;;22.50;16.67;;;13.10;99.90;;;;;;5062297;28;20663;-79
2022/10/29 07:26:43;;;;;;;21.83;16.70;;;13.20;99.90;;;;;;5067132;28;20492;-77
2022/10/29 07:29:09;;;;;;;24.15;17.67;;;13.20;99.90;;;;;;5067673;28;20052;-79
2022/10/29 07:31:35;;;;;;;24.23;18.77;;;13.20;99.90;;;;;;5068503;28;20044;-77
2022/10/29 07:34:01;;;;;;;27.88;21.38;;;13.20;99.90;;;;;;5089736;28;20051;-79
2022/10/29 07:36:29;;;;;;;28.52;22.33;;;13.30;99.90;;;;;;5064209;28;20122;-78
2022/10/29 07:38:54;;;;;;;24.77;20.40;;;13.30;99.90;;;;;;5073239;28;20346;-76
2022/10/29 07:41:20;;;;;;;28.92;21.50;;;13.30;99.90;;;;;;5065117;28;20488;-75
2022/10/29 07:43:45;;;;;;;32.05;21.13;;;13.30;99.90;;;;;;5078565;28;20040;-76
2022/10/29 07:46:11;;;;;;;30.30;21.60;;;13.30;99.90;;;;;;5073324;28;20029;-77
2022/10/29 07:48:37;;;;;;;32.50;22.70;;;13.40;99.90;;;;;;5071671;28;20044;-77
2022/10/29 07:51:03;;;;;;;27.02;20.65;;;13.40;99.90;;;;;;5077337;28;20052;-74
2022/10/29 07:53:32;;;;;;;28.38;19.85;;;13.40;99.90;;;;;;5057558;28;20087;-75
2022/10/29 07:55:58;;;;;;;36.00;23.73;;;13.50;99.90;;;;;;5061972;28;20079;-78
2022/10/29 07:58:24;;;;;;;33.63;22.42;;;13.50;99.90;;;;;;5062072;28;20076;-73
2022/10/29 08:00:50;;;;;;;36.58;23.77;;;13.50;99.90;;;;;;5069464;28;20044;-75
2022/10/29 08:03:16;;;;;;;30.38;21.00;;;13.60;99.90;;;;;;5069092;28;20055;-75
2022/10/29 08:05:41;;;;;;;38.92;25.90;;;13.60;99.90;;;;;;5070795;28;20036;-72
2022/10/29 08:08:07;;;;;;;35.15;25.25;;;13.70;99.90;;;;;;5069364;28;20045;-77
2022/10/29 08:10:35;;;;;;;36.55;23.73;;;13.80;99.90;;;;;;5064134;28;20113;-78
2022/10/29 08:13:02;;;;;;;35.95;24.73;;;13.80;99.90;;;;;;5054587;28;20088;-77
2022/10/29 08:15:28;;;;;;;;;;;13.80;99.90;;;;;;5062840;28;20086;-79
2022/10/29 08:17:55;;;;;;;37.80;24.50;;;13.80;99.90;;;;;;5063125;28;20406;-78
2022/10/29 08:20:23;;;;;;;36.55;23.30;;;13.90;99.90;;;;;;5061662;28;20503;-79
2022/10/29 08:22:48;;;;;;;39.83;24.73;;;13.90;99.90;;;;;;5064521;28;20049;-78
2022/10/29 08:25:15;;;;;;;37.03;23.73;;;14.10;99.90;;;;;;5056169;28;20041;-73
2022/10/29 08:27:42;;;;;;;39.30;25.70;;;14.10;99.90;;;;;;5077163;28;20099;-75
2022/10/29 08:30:09;;;;;;;40.50;25.17;;;14.20;99.90;;;;;;5084545;28;20298;-73
2022/10/29 08:32:35;;;;;;;45.92;26.08;;;14.20;99.90;;;;;;5071440;28;20071;-74
2022/10/29 08:35:01;;;;;;;39.67;25.73;;;14.30;99.90;;;;;;5072372;28;20485;-74
2022/10/29 08:37:27;;;;;;;40.00;25.15;;;14.40;99.90;;;;;;5089377;28;20123;-74
2022/10/29 08:39:53;;;;;;;39.00;25.38;;;14.40;99.90;;;;;;5089317;28;20050;-74
2022/10/29 08:42:27;;;;;;;44.13;25.17;;;14.40;99.90;;;;;;5074368;28;20036;-74
2022/10/29 08:45:14;;;;;;;37.22;23.70;;;14.50;99.90;;;;;;5066553;28;20098;-73
2022/10/29 08:48:18;;;;;;;46.63;28.40;;;14.50;99.90;;;;;;5065826;28;20079;-79
2022/10/29 08:50:48;;;;;;;42.42;27.40;;;14.60;99.90;;;;;;5064341;28;20028;-79
2022/10/29 08:53:19;;;;;;;43.92;28.48;;;14.70;99.90;;;;;;5063112;28;20941;-79
2022/10/29 08:55:45;;;;;;;45.15;25.20;;;14.70;99.90;;;;;;5051367;28;20045;-79
2022/10/29 08:58:20;;;;;;;39.38;26.98;;;14.80;99.90;;;;;;5067736;28;20178;-79
2022/10/29 09:00:51;;;;;;;41.75;28.45;;;14.80;99.90;;;;;;5074710;28;20052;-78
2022/10/29 09:03:17;;;;;;;48.10;28.38;;;14.90;99.90;;;;;;5067781;28;20494;-74
2022/10/29 09:06:09;;;;;;;44.78;28.20;;;14.90;99.90;;;;;;5080746;28;20090;-74
2022/10/29 09:08:46;;;;;;;42.65;28.55;;;14.90;99.90;;;;;;5078947;28;20048;-74
2022/10/29 09:11:26;;;;;;;38.45;26.20;;;15.00;99.90;;;;;;5079082;28;20043;-74
2022/10/29 09:14:17;;;;;;;42.65;26.80;;;15.00;99.90;;;;;;5076865;28;20052;-74
2022/10/29 09:17:11;;;;;;;39.42;24.70;;;15.10;99.90;;;;;;5080603;28;20535;-75
2022/10/29 09:19:55;;;;;;;36.58;24.63;;;15.10;99.90;;;;;;5072479;28;20045;-75
2022/10/29 09:22:24;;;;;;;37.15;22.10;;;15.20;99.90;;;;;;5077676;28;20469;-76
2022/10/29 09:25:04;;;;;;;38.47;23.15;;;15.20;99.90;;;;;;5078451;28;20052;-77
2022/10/29 09:27:52;;;;;;;35.28;21.98;;;15.30;99.90;;;;;;5083105;28;20411;-77
2022/10/29 09:30:19;;;;;;;35.72;21.80;;;15.30;99.90;;;;;;5079725;28;20100;-77
2022/10/29 09:33:07;;;;;;;29.60;21.35;;;15.40;99.90;;;;;;5047765;28;20124;-78
2022/10/29 09:35:37;;;;;;;37.25;22.08;;;15.40;99.90;;;;;;5049391;28;20037;-76
2022/10/29 09:38:13;;;;;;;32.80;20.45;;;15.50;99.90;;;;;;5079154;28;20047;-78
2022/10/29 09:40:42;;;;;;;27.65;18.90;;;15.60;99.90;;;;;;5077844;28;20134;-72
2022/10/29 09:43:27;;;;;;;28.63;18.88;;;15.60;99.90;;;;;;5069014;28;20029;-72
2022/10/29 09:46:15;;;;;;;28.08;18.35;;;15.70;99.90;;;;;;5068483;28;20044;-72
2022/10/29 09:49:07;;;;;;;27.17;18.23;;;15.80;99.90;;;;;;5071705;28;20044;-72
2022/10/29 09:51:48;;;;;;;27.48;18.13;;;15.80;99.90;;;;;;5047807;28;20048;-72
2022/10/29 09:54:14;;;;;;;28.15;17.73;;;15.90;99.90;;;;;;5082047;28;20036;-72
2022/10/29 09:56:42;;;;;;;22.00;16.20;;;16.00;99.90;;;;;;5080395;28;20058;-72
2022/10/29 09:59:20;;;;;;;23.60;16.77;;;16.10;99.90;;;;;;5069861;28;20047;-72
2022/10/29 10:01:47;;;;;;;29.08;17.15;;;16.10;99.90;;;;;;5079828;28;20040;-72
2022/10/29 10:04:27;;;;;;;24.83;17.08;;;16.10;99.90;;;;;;5066221;28;20037;-74
2022/10/29 10:07:04;;;;;;;24.95;16.48;;;16.30;99.90;;;;;;5085451;28;20084;-83
2022/10/29 10:09:59;;;;;;;27.23;17.35;;;16.30;99.90;;;;;;5080625;28;20051;-78
2022/10/29 10:12:46;;;;;;;26.27;17.30;;;16.40;99.90;;;;;;5081972;28;20491;-76
2022/10/29 10:15:15;;;;;;;27.60;17.25;;;16.40;99.90;;;;;;5061741;28;20384;-76
2022/10/29 10:18:04;;;;;;;27.30;17.33;;;16.50;99.90;;;;;;5052515;28;20041;-73
2022/10/29 10:20:33;;;;;;;27.45;17.92;;;16.50;99.90;;;;;;5076242;28;20114;-74
2022/10/29 10:22:59;;;;;;;24.58;18.40;;;16.60;99.90;;;;;;5079297;28;20542;-73
2022/10/29 10:25:39;;;;;;;30.52;18.50;;;16.60;99.90;;;;;;5065103;28;20028;-73
2022/10/29 10:28:28;;;;;;;28.70;19.88;;;16.70;99.90;;;;;;5068142;28;20047;-74
2022/10/29 10:31:03;;;;;;;28.42;19.38;;;16.80;99.90;;;;;;5078725;28;20044;-73
2022/10/29 10:33:29;;;;;;;30.77;19.30;;;16.80;99.90;;;;;;5067835;28;20045;-74
2022/10/29 10:36:04;;;;;;;29.67;19.40;;;16.90;99.90;;;;;;5061406;28;20049;-73
2022/10/29 10:38:38;;;;;;;30.83;20.65;;;17.00;99.90;;;;;;5058193;28;20060;-73
2022/10/29 10:41:07;;;;;;;31.83;20.13;;;17.10;99.90;;;;;;5071559;28;20042;-73
2022/10/29 10:43:34;;;;;;;30.40;19.65;;;17.10;99.90;;;;;;5071555;28;20044;-73
2022/10/29 10:46:09;;;;;;;35.78;20.75;;;17.20;99.90;;;;;;5081048;28;20574;-74
2022/10/29 10:48:35;;;;;;;30.80;20.67;;;17.20;99.90;;;;;;5072465;28;20057;-73
2022/10/29 10:51:37;;;;;;;31.20;20.40;;;17.30;99.90;;;;;;5066089;28;20106;-74
2022/10/29 10:54:41;;;;;;;35.55;21.25;;;17.30;99.90;;;;;;5014736;28;20088;-74
2022/10/29 10:57:10;;;;;;;29.33;20.45;;;17.40;99.90;;;;;;5077074;28;20202;-74
2022/10/29 10:59:46;;;;;;;30.00;19.92;;;17.40;99.90;;;;;;5085261;28;20044;-74
2022/10/29 11:02:42;;;;;;;41.77;21.73;;;17.40;99.90;;;;;;5067492;28;20044;-74
2022/10/29 11:05:23;;;;;;;32.42;19.65;;;17.50;99.90;;;;;;5047130;28;20055;-81
2022/10/29 11:08:03;;;;;;;40.08;20.80;;;17.60;99.90;;;;;;5087151;28;20448;-77
2022/10/29 11:10:48;;;;;;;33.67;20.75;;;17.60;99.90;;;;;;5080629;28;20089;-73
2022/10/29 11:13:21;;;;;;;29.42;19.50;;;17.70;99.90;;;;;;5081879;28;20260;-81
2022/10/29 11:16:07;;;;;;;32.65;20.15;;;17.70;99.90;;;;;;5080313;28;20051;-77
2022/10/29 11:18:38;;;;;;;26.23;20.38;;;17.70;99.90;;;;;;5088155;28;20089;-78
2022/10/29 11:21:11;;;;;;;30.02;20.35;;;17.80;99.90;;;;;;5081071;28;20492;-76
2022/10/29 11:23:55;;;;;;;32.00;19.77;;;17.80;99.90;;;;;;5047931;28;20080;-77
2022/10/29 11:26:26;;;;;;;34.25;20.08;;;17.80;99.90;;;;;;5067553;28;20056;-83
2022/10/29 11:29:23;;;;;;;36.97;21.27;;;17.80;99.90;;;;;;5077957;28;20467;-78
2022/10/29 11:32:09;;;;;;;36.40;21.27;;;17.80;99.90;;;;;;5080827;28;20048;-73
2022/10/29 11:35:01;;;;;;;31.70;19.75;;;17.80;99.90;;;;;;5065942;28;20311;-73
2022/10/29 11:37:32;;;;;;;33.80;20.83;;;17.80;99.90;;;;;;5064582;28;20070;-73
2022/10/29 11:40:11;;;;;;;34.97;19.20;;;17.80;99.90;;;;;;5077062;28;20399;-73
2022/10/29 11:42:38;;;;;;;38.00;21.50;;;17.90;99.90;;;;;;5068556;28;20059;-73
2022/10/29 11:45:04;;;;;;;32.13;19.58;;;17.90;99.90;;;;;;5068566;28;20036;-73
2022/10/29 11:47:45;;;;;;;33.47;19.77;;;17.90;99.90;;;;;;5074617;28;20044;-73
2022/10/29 11:50:38;;;;;;;33.55;20.02;;;17.90;99.90;;;;;;5080797;28;20046;-73
2022/10/29 11:53:17;;;;;;;39.88;21.20;;;17.90;99.90;;;;;;5081598;28;20062;-72
2022/10/29 11:56:16;;;;;;;34.67;19.08;;;17.90;99.90;;;;;;5063382;28;20052;-73
2022/10/29 11:58:51;;;;;;;31.77;18.65;;;18.00;99.90;;;;;;5073939;28;20052;-73
2022/10/29 12:01:46;;;;;;;34.30;19.45;;;18.00;99.90;;;;;;5076328;28;20048;-74
2022/10/29 12:04:26;;;;;;;33.92;20.00;;;18.00;99.90;;;;;;5075719;28;20071;-75
2022/10/29 12:07:20;;;;;;;35.35;20.67;;;18.00;99.90;;;;;;5067250;28;20044;-74
2022/10/29 12:10:25;;;;;;;36.65;19.40;;;18.10;99.90;;;;;;5059059;28;20120;-74
2022/10/29 12:13:08;;;;;;;37.42;19.65;;;18.10;99.90;;;;;;5074908;28;20118;-76
2022/10/29 12:16:02;;;;;;;30.83;19.08;;;18.10;99.90;;;;;;5062020;28;20123;-78
2022/10/29 12:18:57;;;;;;;31.92;18.48;;;18.20;99.90;;;;;;5075702;28;20044;-79
2022/10/29 12:22:00;;;;;;;30.90;18.55;;;18.20;99.90;;;;;;5087282;28;20036;-79
2022/10/29 12:24:29;;;;;;;26.52;18.25;;;18.20;99.90;;;;;;5046150;28;20059;-76
2022/10/29 12:27:12;;;;;;;29.02;18.13;;;18.20;99.90;;;;;;5082282;28;20079;-76
2022/10/29 12:29:58;;;;;;;28.10;18.42;;;18.30;99.90;;;;;;5086732;28;20539;-76
2022/10/29 12:32:52;;;;;;;28.90;17.20;;;18.30;99.90;;;;;;5062963;28;20036;-74
2022/10/29 12:35:24;;;;;;;27.35;17.83;;;18.40;99.90;;;;;;5083385;28;20138;-74
2022/10/29 12:38:16;;;;;;;29.15;16.95;;;18.50;99.90;;;;;;5078992;28;20132;-74
2022/10/29 12:40:44;;;;;;;31.20;17.67;;;18.50;99.90;;;;;;5081995;28;20487;-73
2022/10/29 12:43:24;;;;;;;32.42;18.10;;;18.60;99.90;;;;;;5072865;28;20102;-77
2022/10/29 12:46:15;;;;;;;33.15;17.67;;;18.60;99.90;;;;;;5082848;28;20047;-75
2022/10/29 12:48:49;;;;;;;31.08;17.17;;;18.60;99.90;;;;;;5087797;28;20502;-75
2022/10/29 12:51:43;;;;;;;32.97;16.77;;;18.70;99.90;;;;;;5087713;28;20368;-75
2022/10/29 12:54:29;;;;;;;27.50;16.80;;;18.60;99.90;;;;;;5088481;28;20084;-75